createdAt,value
2023-01-28T00:03:11.424Z,0
2023-01-28T00:03:52.001Z,0
2023-01-28T00:04:32.447Z,0
2023-01-28T00:05:13.325Z,0
2023-01-28T00:05:53.472Z,0
2023-01-28T00:06:34.029Z,0
2023-01-28T00:07:14.578Z,0
2023-01-28T00:07:55.089Z,0
2023-01-28T00:08:35.589Z,0
2023-01-28T00:09:16.130Z,0
2023-01-28T00:15:21.746Z,0
2023-01-28T00:16:02.308Z,0
2023-01-28T00:16:42.836Z,0
2023-01-28T00:17:23.320Z,0
2023-01-28T00:18:03.850Z,0
2023-01-28T00:18:44.371Z,0
2023-01-28T00:19:24.901Z,0
2023-01-28T00:20:05.414Z,0
2023-01-28T00:20:45.951Z,0
2023-01-28T00:21:26.449Z,0
2023-01-28T00:27:31.218Z,0
2023-01-28T00:28:11.743Z,0
2023-01-28T00:28:52.262Z,0
2023-01-28T00:29:32.814Z,0
2023-01-28T00:30:13.304Z,0
2023-01-28T00:30:53.841Z,0
2023-01-28T00:31:34.391Z,0
2023-01-28T00:32:14.898Z,0
2023-01-28T00:32:55.395Z,0
2023-01-28T00:33:35.928Z,0
2023-01-28T00:34:16.465Z,0
2023-01-28T00:39:41.490Z,0
2023-01-28T00:40:21.997Z,0
2023-01-28T00:41:02.499Z,0
2023-01-28T00:41:43.053Z,0
2023-01-28T00:42:23.584Z,0
2023-01-28T00:43:04.743Z,0
2023-01-28T00:43:45.256Z,0
2023-01-28T00:44:25.782Z,0
2023-01-28T00:45:06.292Z,0
2023-01-28T00:51:51.613Z,0
2023-01-28T00:52:32.118Z,0
2023-01-28T00:53:13.483Z,0
2023-01-28T00:53:54.030Z,0
2023-01-28T00:54:34.572Z,0
2023-01-28T00:55:15.599Z,0
2023-01-28T00:57:29.191Z,0
2023-01-28T00:58:18.341Z,0
2023-01-28T00:59:02.507Z,0
2023-01-28T01:01:34.462Z,0
2023-01-28T01:02:15.018Z,0
2023-01-28T01:02:55.480Z,0
2023-01-28T01:03:35.919Z,0
2023-01-28T01:04:16.423Z,0
2023-01-28T01:04:56.959Z,0
2023-01-28T01:05:37.475Z,0
2023-01-28T01:06:17.984Z,0
2023-01-28T01:06:58.528Z,0
2023-01-28T01:07:39.620Z,0
2023-01-28T01:11:39.129Z,0
2023-01-28T01:12:19.638Z,0
2023-01-28T01:13:00.161Z,0
2023-01-28T01:13:40.685Z,0
2023-01-28T01:14:21.200Z,0
2023-01-28T01:15:01.739Z,0
2023-01-28T01:17:15.475Z,0
2023-01-28T01:17:56.025Z,0
2023-01-28T01:18:36.603Z,0
2023-01-28T01:19:17.086Z,0
2023-01-28T01:19:58.562Z,0
2023-01-28T01:20:39.109Z,0
2023-01-28T01:21:19.655Z,0
2023-01-28T01:27:24.513Z,0
2023-01-28T01:28:05.054Z,0
2023-01-28T01:28:45.576Z,0
2023-01-28T01:29:26.105Z,0
2023-01-28T01:30:06.627Z,0
2023-01-28T01:30:47.215Z,0
2023-01-28T01:31:27.797Z,0
2023-01-28T01:32:08.265Z,0
2023-01-28T01:32:49.557Z,0
2023-01-28T01:38:54.889Z,0
2023-01-28T01:39:35.449Z,0
2023-01-28T01:40:15.960Z,0
2023-01-28T01:40:57.478Z,0
2023-01-28T01:41:38.029Z,0
2023-01-28T01:42:18.567Z,0
2023-01-28T01:42:59.067Z,0
2023-01-28T01:43:39.590Z,0
2023-01-28T01:50:24.779Z,0
2023-01-28T01:51:05.287Z,0
2023-01-28T01:51:45.822Z,0
2023-01-28T01:52:26.383Z,0
2023-01-28T01:53:06.908Z,0
2023-01-28T01:53:47.442Z,0
2023-01-28T01:54:27.968Z,0
2023-01-28T01:55:08.485Z,0
2023-01-28T01:55:49.025Z,0
2023-01-28T01:56:30.202Z,0
2023-01-28T02:02:35.425Z,0
2023-01-28T02:03:16.007Z,0
2023-01-28T02:03:56.468Z,0
2023-01-28T02:04:36.983Z,0
2023-01-28T02:05:18.037Z,0
2023-01-28T02:05:58.010Z,0
2023-01-28T02:06:38.736Z,0
2023-01-28T02:07:19.289Z,0
2023-01-28T02:08:00.690Z,0
2023-01-28T02:13:24.925Z,0
2023-01-28T02:14:05.450Z,0
2023-01-28T02:14:45.980Z,0
2023-01-28T02:15:26.529Z,0
2023-01-28T02:16:07.021Z,0
2023-01-28T02:16:47.537Z,0
2023-01-28T02:17:28.068Z,0
2023-01-28T02:18:08.584Z,0
2023-01-28T02:18:49.084Z,0
2023-01-28T02:21:02.449Z,0
2023-01-28T02:21:43.008Z,0
2023-01-28T02:22:23.506Z,0
2023-01-28T02:23:04.183Z,0
2023-01-28T02:25:17.506Z,0
2023-01-28T02:25:57.785Z,0
2023-01-28T02:26:38.304Z,0
2023-01-28T02:27:18.815Z,0
2023-01-28T02:27:59.324Z,0
2023-01-28T02:28:39.852Z,0
2023-01-28T02:29:20.376Z,0
2023-01-28T02:30:01.618Z,0
2023-01-28T02:32:14.718Z,0
2023-01-28T02:32:55.211Z,0
2023-01-28T02:33:35.747Z,0
2023-01-28T02:34:16.274Z,0
2023-01-28T02:34:56.802Z,0
2023-01-28T02:37:11.392Z,0
2023-01-28T02:37:51.913Z,0
2023-01-28T02:38:32.450Z,0
2023-01-28T02:39:14.756Z,0
2023-01-28T02:41:27.782Z,0
2023-01-28T02:42:08.298Z,0
2023-01-28T02:42:48.833Z,0
2023-01-28T02:43:29.345Z,0
2023-01-28T02:44:09.850Z,0
2023-01-28T02:44:50.434Z,0
2023-01-28T02:45:30.943Z,0
2023-01-28T02:46:11.470Z,0
2023-01-28T02:46:51.994Z,0
2023-01-28T02:47:32.524Z,0
2023-01-28T02:54:58.300Z,0
2023-01-28T02:55:38.852Z,0
2023-01-28T02:56:19.399Z,0
2023-01-28T02:56:59.929Z,0
2023-01-28T02:58:57.837Z,0
2023-01-28T02:59:38.474Z,0
2023-01-28T03:00:18.976Z,0
2023-01-28T03:00:59.498Z,0
2023-01-28T03:01:40.055Z,0
2023-01-28T03:02:20.561Z,0
2023-01-28T03:03:01.061Z,0
2023-01-28T03:03:41.561Z,0
2023-01-28T03:04:22.080Z,0
2023-01-28T03:05:02.590Z,0
2023-01-28T03:11:47.872Z,0
2023-01-28T03:12:28.379Z,0
2023-01-28T03:13:08.890Z,0
2023-01-28T03:13:49.425Z,0
2023-01-28T03:14:29.926Z,0
2023-01-28T03:15:10.455Z,0
2023-01-28T03:15:51.029Z,0
2023-01-28T03:16:31.507Z,0
2023-01-28T03:17:12.016Z,0
2023-01-28T03:17:52.558Z,0
2023-01-28T03:24:37.814Z,0
2023-01-28T03:25:18.323Z,0
2023-01-28T03:25:58.881Z,0
2023-01-28T03:26:39.373Z,0
2023-01-28T03:27:19.905Z,0
2023-01-28T03:28:00.429Z,0
2023-01-28T03:28:40.960Z,0
2023-01-28T03:29:21.511Z,0
2023-01-28T03:30:02.045Z,0
2023-01-28T03:30:42.577Z,0
2023-01-28T03:33:21.043Z,0
2023-01-28T03:34:01.499Z,0
2023-01-28T03:34:42.038Z,0
2023-01-28T03:35:22.576Z,0
2023-01-28T03:36:03.097Z,0
2023-01-28T03:36:44.499Z,0
2023-01-28T03:37:25.050Z,0
2023-01-28T03:38:05.551Z,0
2023-01-28T03:38:46.076Z,0
2023-01-28T03:42:45.555Z,0
2023-01-28T03:43:26.080Z,0
2023-01-28T03:44:06.580Z,0
2023-01-28T03:44:47.109Z,0
2023-01-28T03:45:27.620Z,0
2023-01-28T03:46:08.148Z,0
2023-01-28T03:46:48.687Z,0
2023-01-28T03:47:29.217Z,0
2023-01-28T03:49:42.780Z,0
2023-01-28T03:50:23.523Z,0
2023-01-28T03:51:04.053Z,0
2023-01-28T03:51:44.592Z,0
2023-01-28T03:53:57.649Z,0
2023-01-28T03:54:38.145Z,0
2023-01-28T03:55:18.703Z,0
2023-01-28T03:55:59.240Z,0
2023-01-28T03:56:39.742Z,0
2023-01-28T03:57:20.253Z,0
2023-01-28T03:58:00.810Z,0
2023-01-28T03:58:41.342Z,0
2023-01-28T03:59:21.853Z,0
2023-01-28T04:00:02.380Z,0
2023-01-28T04:07:24.502Z,0
2023-01-28T04:08:05.010Z,0
2023-01-28T04:08:45.560Z,0
2023-01-28T04:09:26.112Z,0
2023-01-28T04:10:06.601Z,0
2023-01-28T04:10:47.102Z,0
2023-01-28T04:11:27.651Z,0
2023-01-28T04:13:40.691Z,0
2023-01-28T04:14:21.204Z,0
2023-01-28T04:15:01.744Z,0
2023-01-28T04:15:42.275Z,0
2023-01-28T04:16:22.861Z,0
2023-01-28T04:18:35.812Z,0
2023-01-28T04:19:17.239Z,0
2023-01-28T04:19:57.785Z,0
2023-01-28T04:20:38.305Z,0
2023-01-28T04:21:18.799Z,0
2023-01-28T04:21:59.329Z,0
2023-01-28T04:22:39.843Z,0
2023-01-28T04:25:08.219Z,0
2023-01-28T04:25:48.700Z,0
2023-01-28T04:26:31.041Z,0
2023-01-28T04:27:12.039Z,0
2023-01-28T04:29:31.666Z,0
2023-01-28T04:30:12.170Z,0
2023-01-28T04:30:52.698Z,0
2023-01-28T04:31:34.227Z,0
2023-01-28T04:32:14.706Z,0
2023-01-28T04:32:55.234Z,0
2023-01-28T04:33:35.751Z,0
2023-01-28T04:34:16.283Z,0
2023-01-28T04:41:01.436Z,0
2023-01-28T04:43:15.150Z,0
2023-01-28T04:43:55.671Z,0
2023-01-28T04:44:36.215Z,0
2023-01-28T04:45:17.047Z,0
2023-01-28T04:47:31.297Z,0
2023-01-28T04:48:11.827Z,0
2023-01-28T04:48:52.354Z,0
2023-01-28T04:49:32.885Z,0
2023-01-28T04:50:13.386Z,0
2023-01-28T04:50:53.904Z,0
2023-01-28T04:51:34.438Z,0
2023-01-28T04:52:14.954Z,0
2023-01-28T04:52:55.459Z,0
2023-01-28T04:53:35.978Z,0
2023-01-28T04:59:41.380Z,0
2023-01-28T05:00:22.450Z,0
2023-01-28T05:01:03.038Z,0
2023-01-28T05:01:43.570Z,0
2023-01-28T05:02:24.022Z,0
2023-01-28T05:03:04.555Z,0
2023-01-28T05:03:45.068Z,0
2023-01-28T05:04:25.601Z,0
2023-01-28T05:05:06.114Z,0
2023-01-28T05:10:32.154Z,0
2023-01-28T05:11:12.727Z,0
2023-01-28T05:11:53.215Z,0
2023-01-28T05:12:33.746Z,0
2023-01-28T05:13:14.249Z,0
2023-01-28T05:13:54.762Z,0
2023-01-28T05:14:35.301Z,0
2023-01-28T05:15:16.083Z,0
2023-01-28T05:15:56.334Z,0
2023-01-28T05:22:01.013Z,0
2023-01-28T05:22:41.549Z,0
2023-01-28T05:24:54.809Z,0
2023-01-28T05:25:35.309Z,0
2023-01-28T05:26:15.831Z,0
2023-01-28T05:26:56.335Z,0
2023-01-28T05:27:36.838Z,0
2023-01-28T05:28:17.348Z,0
2023-01-28T05:28:57.859Z,0
2023-01-28T05:29:38.416Z,0
2023-01-28T05:31:52.960Z,0
2023-01-28T05:32:33.519Z,0
2023-01-28T05:33:14.049Z,0
2023-01-28T05:33:54.539Z,0
2023-01-28T05:34:35.066Z,0
2023-01-28T05:35:15.844Z,0
2023-01-28T05:35:56.129Z,0
2023-01-28T05:36:36.636Z,0
2023-01-28T05:37:17.159Z,0
2023-01-28T05:37:57.713Z,0
2023-01-28T05:43:22.801Z,0
2023-01-28T05:44:03.319Z,0
2023-01-28T05:44:43.866Z,0
2023-01-28T05:45:24.478Z,0
2023-01-28T05:46:05.017Z,0
2023-01-28T05:46:45.400Z,0
2023-01-28T05:47:25.940Z,0
2023-01-28T05:48:06.452Z,0
2023-01-28T05:48:46.964Z,0
2023-01-28T05:49:27.489Z,0
2023-01-28T05:50:08.014Z,0
2023-01-28T05:56:12.696Z,0
2023-01-28T05:56:53.227Z,0
2023-01-28T05:57:33.724Z,0
2023-01-28T05:58:14.252Z,0
2023-01-28T05:58:54.795Z,0
2023-01-28T05:59:35.327Z,0
2023-01-28T06:00:17.200Z,0
2023-01-28T06:00:57.222Z,0
2023-01-28T06:01:37.746Z,0
2023-01-28T06:07:38.807Z,0
2023-01-28T06:08:19.350Z,0
2023-01-28T06:08:59.855Z,0
2023-01-28T06:09:40.387Z,0
2023-01-28T06:10:20.890Z,0
2023-01-28T06:11:01.395Z,0
2023-01-28T06:11:41.904Z,0
2023-01-28T06:12:22.454Z,0
2023-01-28T06:13:02.935Z,0
2023-01-28T06:13:43.438Z,0
2023-01-28T06:21:46.210Z,0
2023-01-28T06:22:26.715Z,0
2023-01-28T06:23:07.278Z,0
2023-01-28T06:23:47.792Z,0
2023-01-28T06:24:28.344Z,0
2023-01-28T06:25:08.821Z,0
2023-01-28T06:25:49.380Z,0
2023-01-28T06:26:29.895Z,0
2023-01-28T06:27:10.412Z,0
2023-01-28T06:27:50.952Z,0
2023-01-28T06:30:29.375Z,0
2023-01-28T06:31:09.953Z,0
2023-01-28T06:31:50.463Z,0
2023-01-28T06:32:31.642Z,0
2023-01-28T06:33:12.155Z,0
2023-01-28T06:33:52.681Z,0
2023-01-28T06:34:33.189Z,0
2023-01-28T06:35:13.707Z,4
2023-01-28T06:35:54.227Z,4
2023-01-28T06:39:14.720Z,0
2023-01-28T06:39:55.234Z,4
2023-01-28T06:40:36.349Z,4
2023-01-28T06:41:17.499Z,4
2023-01-28T06:45:13.755Z,8
2023-01-28T06:45:54.259Z,8
2023-01-28T06:46:34.834Z,8
2023-01-28T06:47:15.273Z,12
2023-01-28T06:47:55.789Z,12
2023-01-28T06:48:36.285Z,16
2023-01-28T06:49:16.809Z,12
2023-01-28T06:49:57.323Z,16
2023-01-28T06:50:37.833Z,16
2023-01-28T06:56:40.512Z,32
2023-01-28T06:57:21.009Z,36
2023-01-28T06:58:01.576Z,40
2023-01-28T06:58:42.029Z,48
2023-01-28T06:59:22.584Z,44
2023-01-28T07:00:03.094Z,48
2023-01-28T07:00:43.639Z,48
2023-01-28T07:01:24.154Z,48
2023-01-28T07:04:40.417Z,68
2023-01-28T07:05:20.951Z,72
2023-01-28T07:06:01.464Z,72
2023-01-28T07:06:41.975Z,72
2023-01-28T07:07:22.477Z,68
2023-01-28T07:08:03.841Z,64
2023-01-28T07:08:44.359Z,68
2023-01-28T07:09:24.893Z,72
2023-01-28T07:10:05.423Z,76
2023-01-28T07:16:10.109Z,120
2023-01-28T07:16:51.302Z,112
2023-01-28T07:17:31.889Z,100
2023-01-28T07:18:12.308Z,100
2023-01-28T07:18:52.825Z,100
2023-01-28T07:19:33.357Z,112
2023-01-28T07:20:14.228Z,124
2023-01-28T07:20:54.400Z,140
2023-01-28T07:21:34.915Z,148
2023-01-28T07:22:15.445Z,144
2023-01-28T07:27:00.347Z,176
2023-01-28T07:27:40.882Z,172
2023-01-28T07:30:57.188Z,144
2023-01-28T07:31:37.836Z,160
2023-01-28T07:32:18.203Z,172
2023-01-28T07:32:58.735Z,168
2023-01-28T07:33:39.298Z,152
2023-01-28T07:36:57.408Z,192
2023-01-28T07:37:36.102Z,184
2023-01-28T07:38:16.639Z,176
2023-01-28T07:38:57.157Z,176
2023-01-28T07:39:37.673Z,184
2023-01-28T07:40:18.193Z,188
2023-01-28T07:40:58.689Z,192
2023-01-28T07:41:39.201Z,204
2023-01-28T07:42:20.238Z,232
2023-01-28T07:49:05.417Z,428
2023-01-28T07:51:18.448Z,352
2023-01-28T07:51:59.730Z,416
2023-01-28T07:52:40.271Z,480
2023-01-28T07:53:21.365Z,448
2023-01-28T07:56:54.448Z,460
2023-01-28T07:57:34.957Z,468
2023-01-28T07:58:15.475Z,468
2023-01-28T07:58:56.033Z,520
2023-01-28T08:01:25.132Z,488
2023-01-28T08:02:05.588Z,468
2023-01-28T08:02:46.177Z,484
2023-01-28T08:03:26.639Z,504
2023-01-28T08:04:07.326Z,516
2023-01-28T08:06:20.307Z,520
2023-01-28T08:07:00.814Z,504
2023-01-28T08:07:41.334Z,528
2023-01-28T08:08:21.850Z,604
2023-01-28T08:09:02.334Z,664
2023-01-28T08:09:42.855Z,716
2023-01-28T08:10:23.368Z,756
2023-01-28T08:11:04.794Z,724
2023-01-28T08:11:45.318Z,636
2023-01-28T08:14:38.872Z,688
2023-01-28T08:15:19.365Z,640
2023-01-28T08:16:00.532Z,600
2023-01-28T08:16:42.024Z,576
2023-01-28T08:20:17.600Z,660
2023-01-28T08:20:57.742Z,700
2023-01-28T08:21:38.302Z,736
2023-01-28T08:22:18.838Z,728
2023-01-28T08:25:36.083Z,628
2023-01-28T08:26:16.599Z,592
2023-01-28T08:26:57.293Z,572
2023-01-28T08:27:37.688Z,596
2023-01-28T08:30:11.045Z,692
2023-01-28T08:30:51.789Z,836
2023-01-28T08:31:33.756Z,928
2023-01-28T08:32:14.240Z,1056
2023-01-28T08:34:27.083Z,1092
2023-01-28T08:35:08.275Z,1120
2023-01-28T08:35:48.862Z,1120
2023-01-28T08:36:29.345Z,1108
2023-01-28T08:38:44.113Z,1320
2023-01-28T08:39:28.139Z,1412
2023-01-28T08:40:09.560Z,1612
2023-01-28T08:40:50.169Z,1792
2023-01-28T08:43:03.275Z,1944
2023-01-28T08:43:43.782Z,1956
2023-01-28T08:44:24.326Z,1916
2023-01-28T08:45:04.871Z,1836
2023-01-28T08:45:45.418Z,1912
2023-01-28T08:47:58.433Z,2300
2023-01-28T08:48:38.950Z,2324
2023-01-28T08:49:19.493Z,2360
2023-01-28T08:50:00.052Z,2348
2023-01-28T08:50:40.615Z,2332
2023-01-28T08:51:21.163Z,2340
2023-01-28T08:52:01.662Z,2328
2023-01-28T08:52:42.132Z,2268
2023-01-28T08:53:22.662Z,2200
2023-01-28T08:54:03.202Z,2180
2023-01-28T09:00:29.408Z,1984
2023-01-28T09:01:09.891Z,1704
2023-01-28T09:01:50.467Z,1408
2023-01-28T09:02:32.252Z,1212
2023-01-28T09:03:11.573Z,1108
2023-01-28T09:03:52.175Z,1060
2023-01-28T09:04:32.648Z,1092
2023-01-28T09:05:13.200Z,1128
2023-01-28T09:13:15.918Z,1592
2023-01-28T09:13:56.974Z,1788
2023-01-28T09:14:38.041Z,1852
2023-01-28T09:15:18.569Z,1804
2023-01-28T09:15:59.150Z,1768
2023-01-28T09:16:39.586Z,1764
2023-01-28T09:18:52.659Z,2128
2023-01-28T09:19:33.175Z,2276
2023-01-28T09:20:14.149Z,2424
2023-01-28T09:20:54.224Z,2440
2023-01-28T09:21:34.828Z,2372
2023-01-28T09:23:48.637Z,2952
2023-01-28T09:24:30.102Z,3080
2023-01-28T09:25:12.007Z,3156
2023-01-28T09:25:52.617Z,3224
2023-01-28T09:27:51.047Z,3064
2023-01-28T09:28:32.246Z,2980
2023-01-28T09:29:12.780Z,2912
2023-01-28T09:29:54.241Z,2832
2023-01-28T09:30:36.218Z,2676
2023-01-28T09:31:15.439Z,2640
2023-01-28T09:31:55.917Z,2856
2023-01-28T09:38:41.039Z,3332
2023-01-28T09:39:22.364Z,3280
2023-01-28T09:40:02.883Z,3040
2023-01-28T09:40:43.397Z,2784
2023-01-28T09:41:23.927Z,2720
2023-01-28T09:42:04.445Z,2696
2023-01-28T09:42:45.824Z,2664
2023-01-28T09:49:31.116Z,2560
2023-01-28T09:50:11.649Z,2568
2023-01-28T09:50:52.191Z,2564
2023-01-28T09:51:32.697Z,2616
2023-01-28T09:52:13.217Z,2708
2023-01-28T09:52:53.719Z,2688
2023-01-28T09:53:34.259Z,2712
2023-01-28T09:54:14.733Z,2872
2023-01-28T09:54:55.337Z,3012
2023-01-28T09:55:36.743Z,3008
2023-01-28T09:58:57.109Z,3124
2023-01-28T09:59:38.401Z,3084
2023-01-28T10:00:19.142Z,3084
2023-01-28T10:01:00.495Z,3064
2023-01-28T10:01:40.932Z,3028
2023-01-28T10:06:26.995Z,3144
2023-01-28T10:07:07.553Z,3108
2023-01-28T10:07:48.082Z,2824
2023-01-28T10:08:29.208Z,2460
2023-01-28T10:09:09.734Z,2416
2023-01-28T10:09:50.823Z,2656
2023-01-28T10:13:55.967Z,1952
2023-01-28T10:14:36.527Z,2028
2023-01-28T10:15:17.063Z,2216
2023-01-28T10:17:30.676Z,3044
2023-01-28T10:18:17.423Z,2828
2023-01-28T10:18:51.877Z,2664
2023-01-28T10:19:32.382Z,2520
2023-01-28T10:20:13.304Z,2328
2023-01-28T10:20:53.483Z,2288
2023-01-28T10:24:09.977Z,2136
2023-01-28T10:24:50.553Z,2008
2023-01-28T10:25:31.088Z,1928
2023-01-28T10:26:11.621Z,2016
2023-01-28T10:26:52.108Z,2396
2023-01-28T10:27:32.696Z,2396
2023-01-28T10:28:13.184Z,1904
2023-01-28T10:28:54.247Z,1368
2023-01-28T10:29:34.773Z,1136
2023-01-28T10:32:53.794Z,1600
2023-01-28T10:33:34.287Z,1464
2023-01-28T10:34:16.571Z,1316
2023-01-28T10:34:56.924Z,1456
2023-01-28T10:35:37.436Z,1656
2023-01-28T10:36:17.940Z,1532
2023-01-28T10:36:58.478Z,1396
2023-01-28T10:39:36.921Z,2152
2023-01-28T10:40:17.679Z,2072
2023-01-28T10:40:57.948Z,2060
2023-01-28T10:41:48.486Z,2292
2023-01-28T10:42:19.008Z,2436
2023-01-28T10:42:59.534Z,2392
2023-01-28T10:43:40.058Z,2176
2023-01-28T10:44:20.551Z,2220
2023-01-28T10:45:01.285Z,2352
2023-01-28T10:45:41.847Z,2224
2023-01-28T10:49:07.126Z,2860
2023-01-28T10:49:47.656Z,3024
2023-01-28T10:50:28.849Z,3136
2023-01-28T10:51:09.335Z,3148
2023-01-28T10:51:49.879Z,3096
2023-01-28T10:52:30.416Z,2924
2023-01-28T10:53:10.951Z,2904
2023-01-28T10:53:52.332Z,3128
2023-01-28T10:59:17.940Z,3232
2023-01-28T10:59:58.451Z,3160
2023-01-28T11:00:39.058Z,3272
2023-01-28T11:01:19.563Z,3424
2023-01-28T11:02:00.072Z,3344
2023-01-28T11:02:40.617Z,3108
2023-01-28T11:03:21.144Z,3036
2023-01-28T11:04:02.616Z,3200
2023-01-28T11:08:06.695Z,2376
2023-01-28T11:08:47.224Z,2160
2023-01-28T11:09:27.793Z,2172
2023-01-28T11:10:08.329Z,2364
2023-01-28T11:12:22.864Z,2716
2023-01-28T11:13:04.364Z,2708
2023-01-28T11:13:44.953Z,2692
2023-01-28T11:14:25.505Z,2384
2023-01-28T11:16:44.837Z,2688
2023-01-28T11:17:25.379Z,2864
2023-01-28T11:18:10.167Z,2744
2023-01-28T11:18:49.431Z,2664
2023-01-28T11:20:47.888Z,3152
2023-01-28T11:21:28.461Z,3252
2023-01-28T11:22:08.991Z,3148
2023-01-28T11:22:49.530Z,2996
2023-01-28T11:23:30.029Z,3132
2023-01-28T11:24:10.601Z,3224
2023-01-28T11:24:51.149Z,2696
2023-01-28T11:25:31.656Z,2264
2023-01-28T11:26:12.192Z,2268
2023-01-28T11:26:52.723Z,2800
2023-01-28T11:34:14.860Z,2528
2023-01-28T11:34:55.373Z,2684
2023-01-28T11:35:35.963Z,2920
2023-01-28T11:36:16.470Z,3036
2023-01-28T11:36:57.540Z,2964
2023-01-28T11:37:38.085Z,3044
2023-01-28T11:38:18.643Z,3196
2023-01-28T11:38:59.175Z,3276
2023-01-28T11:39:39.687Z,3224
2023-01-28T11:47:01.853Z,3996
2023-01-28T11:47:42.398Z,4160
2023-01-28T11:48:22.896Z,4056
2023-01-28T11:49:03.412Z,3820
2023-01-28T11:49:43.914Z,3588
2023-01-28T11:50:24.430Z,3512
2023-01-28T11:51:04.955Z,3312
2023-01-28T11:51:45.455Z,2872
2023-01-28T11:52:25.956Z,2820
2023-01-28T11:53:07.726Z,2792
2023-01-28T11:57:46.555Z,3904
2023-01-28T11:58:27.107Z,3704
2023-01-28T11:59:07.614Z,3444
2023-01-28T11:59:48.147Z,3316
2023-01-28T12:00:28.663Z,3420
2023-01-28T12:01:09.174Z,3620
2023-01-28T12:01:49.695Z,3932
2023-01-28T12:02:30.209Z,3912
2023-01-28T12:03:10.706Z,3608
2023-01-28T12:03:51.259Z,3424
2023-01-28T12:08:31.303Z,3912
2023-01-28T12:09:11.832Z,3456
2023-01-28T12:09:52.344Z,3332
2023-01-28T12:10:32.884Z,3464
2023-01-28T12:11:13.452Z,3380
2023-01-28T12:11:53.963Z,3328
2023-01-28T12:12:34.482Z,3484
2023-01-28T12:13:14.980Z,3432
2023-01-28T12:13:55.551Z,3188
2023-01-28T12:14:36.076Z,3052
2023-01-28T12:17:14.596Z,2872
2023-01-28T12:17:55.119Z,2952
2023-01-28T12:18:35.618Z,2948
2023-01-28T12:19:16.863Z,2880
2023-01-28T12:19:57.400Z,2852
2023-01-28T12:20:37.916Z,2888
2023-01-28T12:21:18.430Z,3004
2023-01-28T12:21:58.960Z,3108
2023-01-28T12:22:39.473Z,3096
2023-01-28T12:29:24.713Z,1980
2023-01-28T12:30:05.212Z,1980
2023-01-28T12:30:45.752Z,1932
2023-01-28T12:31:26.287Z,1900
2023-01-28T12:32:06.844Z,1932
2023-01-28T12:32:47.259Z,1984
2023-01-28T12:33:27.799Z,2144
2023-01-28T12:34:08.317Z,2296
2023-01-28T12:34:48.834Z,2508
2023-01-28T12:37:02.674Z,3404
2023-01-28T12:37:43.206Z,3268
2023-01-28T12:38:23.712Z,3000
2023-01-28T12:39:04.220Z,2660
2023-01-28T12:39:44.755Z,2368
2023-01-28T12:40:25.271Z,2280
2023-01-28T12:41:06.810Z,2176
2023-01-28T12:41:46.298Z,2076
2023-01-28T12:42:26.814Z,2076
2023-01-28T12:43:07.323Z,2196
2023-01-28T12:49:12.644Z,4676
2023-01-28T12:49:53.181Z,4964
2023-01-28T12:50:33.689Z,5240
2023-01-28T12:51:14.196Z,5616
2023-01-28T12:51:54.729Z,6024
2023-01-28T12:52:35.219Z,6376
2023-01-28T12:53:15.760Z,6404
2023-01-28T12:53:56.288Z,6256
2023-01-28T12:54:36.877Z,6008
2023-01-28T12:55:17.459Z,5960
2023-01-28T12:59:17.832Z,4876
2023-01-28T12:59:58.434Z,4552
2023-01-28T13:00:38.959Z,4800
2023-01-28T13:01:19.510Z,4968
2023-01-28T13:02:00.133Z,4764
2023-01-28T13:02:40.629Z,4500
2023-01-28T13:03:21.163Z,4232
2023-01-28T13:04:01.634Z,3948
2023-01-28T13:04:42.175Z,3632
2023-01-28T13:05:22.732Z,3484
2023-01-28T13:11:27.793Z,5164
2023-01-28T13:12:08.353Z,4512
2023-01-28T13:12:48.937Z,4036
2023-01-28T13:13:29.474Z,3888
2023-01-28T13:14:09.974Z,3876
2023-01-28T13:16:36.021Z,3592
2023-01-28T13:17:04.401Z,4028
2023-01-28T13:17:44.960Z,4644
2023-01-28T13:18:25.510Z,5184
2023-01-28T13:19:06.062Z,5576
2023-01-28T13:19:46.596Z,5860
2023-01-28T13:20:27.138Z,6084
2023-01-28T13:21:07.689Z,5972
2023-01-28T13:21:49.509Z,5508
2023-01-28T13:22:28.780Z,5012
2023-01-28T13:28:33.833Z,3808
2023-01-28T13:29:14.406Z,3628
2023-01-28T13:29:54.928Z,3460
2023-01-28T13:30:35.528Z,3356
2023-01-28T13:33:52.958Z,2728
2023-01-28T13:34:33.499Z,2556
2023-01-28T13:35:14.291Z,2396
2023-01-28T13:35:54.580Z,2276
2023-01-28T13:36:35.132Z,2164
2023-01-28T13:37:15.657Z,2020
2023-01-28T13:37:56.178Z,1924
2023-01-28T13:38:36.686Z,1908
2023-01-28T13:45:22.021Z,1864
2023-01-28T13:46:02.585Z,1872
2023-01-28T13:46:43.133Z,1840
2023-01-28T13:47:23.583Z,1812
2023-01-28T13:48:04.799Z,1768
2023-01-28T13:48:45.335Z,1700
2023-01-28T13:49:25.910Z,1664
2023-01-28T13:50:07.152Z,1636
2023-01-28T13:57:29.318Z,1788
2023-01-28T13:58:09.857Z,1948
2023-01-28T13:58:51.351Z,2176
2023-01-28T13:59:31.853Z,2264
2023-01-28T14:00:12.403Z,2236
2023-01-28T14:00:52.977Z,2156
2023-01-28T14:01:33.518Z,2136
2023-01-28T14:02:14.013Z,2164
2023-01-28T14:07:34.802Z,2504
2023-01-28T14:08:15.356Z,2520
2023-01-28T14:08:56.775Z,2552
2023-01-28T14:09:37.286Z,2532
2023-01-28T14:10:18.132Z,2432
2023-01-28T14:12:15.756Z,2456
2023-01-28T14:12:56.235Z,2480
2023-01-28T14:13:36.728Z,2452
2023-01-28T14:14:17.241Z,2444
2023-01-28T14:14:57.724Z,2476
2023-01-28T14:15:38.292Z,2472
2023-01-28T14:16:18.773Z,2444
2023-01-28T14:16:59.271Z,2432
2023-01-28T14:17:39.750Z,2372
2023-01-28T14:18:20.228Z,2364
2023-01-28T14:19:00.729Z,2452
2023-01-28T14:25:45.880Z,2584
2023-01-28T14:27:58.970Z,2316
2023-01-28T14:28:39.468Z,2284
2023-01-28T14:29:20.019Z,2280
2023-01-28T14:30:00.544Z,2268
2023-01-28T14:30:41.125Z,2244
2023-01-28T14:31:21.635Z,2216
2023-01-28T14:32:02.168Z,2188
2023-01-28T14:32:42.621Z,2152
2023-01-28T14:33:23.137Z,2108
2023-01-28T14:34:03.695Z,2068
2023-01-28T14:40:48.922Z,1932
2023-01-28T14:41:29.586Z,1872
2023-01-28T14:42:10.092Z,1772
2023-01-28T14:42:51.158Z,1660
2023-01-28T14:43:31.684Z,1520
2023-01-28T14:45:45.074Z,1248
2023-01-28T14:46:25.723Z,1184
2023-01-28T14:47:06.264Z,1124
2023-01-28T14:47:46.914Z,1072
2023-01-28T14:49:59.920Z,936
2023-01-28T14:50:40.451Z,912
2023-01-28T14:51:20.945Z,884
2023-01-28T14:52:02.350Z,860
2023-01-28T14:54:16.923Z,748
2023-01-28T14:54:57.464Z,704
2023-01-28T14:55:37.985Z,692
2023-01-28T14:56:19.140Z,684
2023-01-28T14:57:00.283Z,668
2023-01-28T14:57:40.813Z,640
2023-01-28T14:58:21.322Z,596
2023-01-28T14:59:01.869Z,544
2023-01-28T15:02:06.252Z,480
2023-01-28T15:02:46.106Z,504
2023-01-28T15:03:26.680Z,504
2023-01-28T15:04:07.080Z,492
2023-01-28T15:04:47.566Z,500
2023-01-28T15:05:28.067Z,520
2023-01-28T15:06:08.573Z,504
2023-01-28T15:06:49.033Z,484
2023-01-28T15:07:29.579Z,464
2023-01-28T15:08:10.115Z,440
2023-01-28T15:08:50.644Z,420
2023-01-28T15:14:15.637Z,372
2023-01-28T15:14:56.178Z,360
2023-01-28T15:15:37.481Z,352
2023-01-28T15:16:18.010Z,340
2023-01-28T15:16:58.554Z,328
2023-01-28T15:17:39.035Z,320
2023-01-28T15:18:19.637Z,316
2023-01-28T15:20:32.636Z,308
2023-01-28T15:21:14.184Z,312
2023-01-28T15:21:54.689Z,316
2023-01-28T15:22:35.203Z,320
2023-01-28T15:23:56.326Z,316
2023-01-28T15:26:09.318Z,300
2023-01-28T15:26:49.836Z,300
2023-01-28T15:27:30.387Z,296
2023-01-28T15:28:10.914Z,300
2023-01-28T15:28:51.465Z,308
2023-01-28T15:30:49.885Z,324
2023-01-28T15:31:30.421Z,320
2023-01-28T15:32:10.864Z,316
2023-01-28T15:32:52.061Z,308
2023-01-28T15:33:32.658Z,300
2023-01-28T15:34:13.139Z,292
2023-01-28T15:34:53.679Z,284
2023-01-28T15:35:34.213Z,276
2023-01-28T15:38:27.845Z,264
2023-01-28T15:39:08.397Z,252
2023-01-28T15:39:48.925Z,248
2023-01-28T15:42:09.504Z,240
2023-01-28T15:42:53.775Z,236
2023-01-28T15:43:35.051Z,232
2023-01-28T15:44:17.250Z,232
2023-01-28T15:45:02.287Z,224
2023-01-28T15:45:44.363Z,216
2023-01-28T15:47:08.783Z,212
2023-01-28T15:49:37.507Z,200
2023-01-28T15:50:18.055Z,200
2023-01-28T15:50:58.604Z,196
2023-01-28T15:51:39.954Z,196
2023-01-28T15:52:20.430Z,196
2023-01-28T15:53:02.715Z,188
2023-01-28T15:58:28.181Z,192
2023-01-28T15:59:10.208Z,180
2023-01-28T15:59:50.694Z,172
2023-01-28T16:00:31.539Z,164
2023-01-28T16:01:11.868Z,156
2023-01-28T16:01:53.957Z,156
2023-01-28T16:04:37.645Z,128
2023-01-28T16:05:18.781Z,124
2023-01-28T16:06:00.930Z,116
2023-01-28T16:08:14.858Z,108
2023-01-28T16:08:57.124Z,104
2023-01-28T16:09:37.671Z,100
2023-01-28T16:10:18.171Z,92
2023-01-28T16:11:00.160Z,92
2023-01-28T16:13:28.563Z,72
2023-01-28T16:14:09.155Z,68